createdAt,value
2022-11-25T00:00:29.166Z,4.30
2022-11-25T00:03:17.962Z,4.30
2022-11-25T00:05:46.710Z,4.38
2022-11-25T00:08:14.613Z,4.40
2022-11-25T00:10:42.888Z,4.30
2022-11-25T00:13:15.332Z,4.20
2022-11-25T00:15:43.827Z,4.20
2022-11-25T00:18:12.630Z,4.20
2022-11-25T00:20:41.994Z,4.20
2022-11-25T00:23:10.826Z,4.10
2022-11-25T00:25:38.706Z,4.10
2022-11-25T00:28:10.839Z,4.10
2022-11-25T00:30:39.870Z,4.10
2022-11-25T00:33:08.734Z,4.10
2022-11-25T00:35:36.987Z,4.10
2022-11-25T00:38:05.195Z,4.20
2022-11-25T00:40:36.783Z,4.20
2022-11-25T00:43:24.875Z,4.20
2022-11-25T00:45:53.364Z,4.20
2022-11-25T00:48:21.162Z,4.26
2022-11-25T00:50:49.749Z,4.30
2022-11-25T00:53:17.823Z,4.24
2022-11-25T00:56:11.609Z,4.20
2022-11-25T00:58:46.356Z,4.20
2022-11-25T01:01:15.364Z,4.20
2022-11-25T01:03:44.622Z,4.20
2022-11-25T01:06:12.462Z,4.26
2022-11-25T01:08:41.944Z,4.20
2022-11-25T01:11:18.206Z,4.26
2022-11-25T01:13:47.399Z,4.30
2022-11-25T01:16:20.146Z,4.38
2022-11-25T01:18:50.795Z,4.40
2022-11-25T01:21:30.167Z,4.40
2022-11-25T01:24:01.624Z,4.40
2022-11-25T01:26:33.254Z,4.40
2022-11-25T01:29:21.035Z,4.42
2022-11-25T01:31:51.177Z,4.48
2022-11-25T01:34:23.973Z,4.50
2022-11-25T01:36:52.726Z,4.50
2022-11-25T01:39:31.679Z,4.60
2022-11-25T01:42:03.381Z,4.60
2022-11-25T01:44:39.319Z,4.60
2022-11-25T01:47:13.497Z,4.60
2022-11-25T01:49:50.624Z,4.60
2022-11-25T01:52:29.267Z,4.60
2022-11-25T01:55:30.799Z,4.60
2022-11-25T01:58:07.800Z,4.60
2022-11-25T02:00:42.170Z,4.60
2022-11-25T02:03:13.868Z,4.60
2022-11-25T02:06:03.785Z,4.58
2022-11-25T02:08:39.293Z,4.52
2022-11-25T02:11:10.820Z,4.50
2022-11-25T02:13:41.374Z,4.46
2022-11-25T02:16:11.904Z,4.40
2022-11-25T02:18:44.215Z,4.40
2022-11-25T02:21:26.207Z,4.42
2022-11-25T02:24:12.322Z,4.50
2022-11-25T02:26:43.344Z,4.50
2022-11-25T02:29:13.742Z,4.50
2022-11-25T02:31:47.486Z,4.52
2022-11-25T02:34:16.917Z,4.52
2022-11-25T02:36:48.014Z,4.60
2022-11-25T02:39:17.224Z,4.54
2022-11-25T02:41:55.508Z,4.52
2022-11-25T02:44:24.823Z,4.60
2022-11-25T02:46:53.309Z,4.58
2022-11-25T02:49:21.186Z,4.54
2022-11-25T02:51:49.211Z,4.50
2022-11-25T02:54:17.366Z,4.50
2022-11-25T02:56:46.487Z,4.50
2022-11-25T02:59:15.493Z,4.50
2022-11-25T03:01:44.120Z,4.52
2022-11-25T03:04:12.688Z,4.50
2022-11-25T03:06:41.764Z,4.60
2022-11-25T03:09:10.195Z,4.52
2022-11-25T03:11:57.203Z,4.50
2022-11-25T03:14:25.140Z,4.50
2022-11-25T03:16:54.300Z,4.50
2022-11-25T03:19:22.626Z,4.50
2022-11-25T03:21:53.834Z,4.52
2022-11-25T03:24:24.271Z,4.52
2022-11-25T03:26:52.649Z,4.50
2022-11-25T03:29:20.935Z,4.50
2022-11-25T03:31:50.158Z,4.54
2022-11-25T03:34:21.182Z,4.60
2022-11-25T03:36:49.077Z,4.60
2022-11-25T03:39:17.118Z,4.60
2022-11-25T03:41:45.299Z,4.60
2022-11-25T03:44:15.703Z,4.68
2022-11-25T03:46:45.702Z,4.70
2022-11-25T03:49:14.100Z,4.70
2022-11-25T03:51:44.049Z,4.64
2022-11-25T03:54:15.343Z,4.60
2022-11-25T03:56:44.770Z,4.68
2022-11-25T03:59:13.196Z,4.70
2022-11-25T04:01:44.209Z,4.70
2022-11-25T04:04:12.929Z,4.70
2022-11-25T04:06:48.111Z,4.70
2022-11-25T04:09:17.287Z,4.62
2022-11-25T04:12:05.092Z,4.60
2022-11-25T04:14:42.107Z,4.68
2022-11-25T04:17:11.517Z,4.70
2022-11-25T04:19:40.670Z,4.70
2022-11-25T04:22:12.065Z,4.70
2022-11-25T04:24:41.097Z,4.70
2022-11-25T04:27:09.406Z,4.70
2022-11-25T04:29:37.253Z,4.70
2022-11-25T04:32:09.312Z,4.68
2022-11-25T04:34:37.519Z,4.64
2022-11-25T04:37:05.497Z,4.68
2022-11-25T04:39:33.530Z,4.70
2022-11-25T04:42:20.343Z,4.70
2022-11-25T04:45:07.557Z,4.70
2022-11-25T04:47:39.882Z,4.80
2022-11-25T04:50:17.998Z,4.80
2022-11-25T04:52:48.117Z,4.80
2022-11-25T04:55:16.624Z,4.80
2022-11-25T04:57:44.499Z,4.80
2022-11-25T05:00:13.611Z,4.80
2022-11-25T05:02:42.142Z,4.80
2022-11-25T05:05:10.796Z,4.80
2022-11-25T05:07:39.121Z,4.88
2022-11-25T05:10:08.767Z,4.90
2022-11-25T05:12:38.039Z,4.90
2022-11-25T05:15:08.721Z,4.90
2022-11-25T05:17:37.991Z,4.90
2022-11-25T05:20:12.343Z,4.90
2022-11-25T05:22:40.617Z,4.90
2022-11-25T05:25:10.820Z,4.90
2022-11-25T05:27:39.184Z,4.90
2022-11-25T05:30:10.991Z,4.90
2022-11-25T05:32:40.546Z,4.90
2022-11-25T05:35:11.703Z,4.90
2022-11-25T05:37:40.841Z,4.90
2022-11-25T05:40:09.465Z,4.90
2022-11-25T05:42:40.739Z,4.90
2022-11-25T05:45:12.487Z,4.90
2022-11-25T05:47:41.255Z,4.90
2022-11-25T05:50:09.408Z,4.90
2022-11-25T05:52:37.428Z,4.94
2022-11-25T05:55:07.816Z,5.00
2022-11-25T05:57:36.774Z,5.00
2022-11-25T06:00:09.838Z,5.00
2022-11-25T06:02:40.019Z,5.04
2022-11-25T06:05:09.001Z,5.08
2022-11-25T06:07:39.849Z,5.10
2022-11-25T06:10:10.952Z,5.06
2022-11-25T06:12:38.938Z,5.10
2022-11-25T06:15:10.521Z,5.10
2022-11-25T06:17:41.404Z,5.10
2022-11-25T06:20:12.220Z,5.10
2022-11-25T06:22:40.435Z,5.10
2022-11-25T06:25:10.481Z,5.10
2022-11-25T06:28:04.940Z,5.10
2022-11-25T06:30:34.889Z,5.10
2022-11-25T06:33:03.507Z,5.10
2022-11-25T06:35:34.586Z,5.10
2022-11-25T06:38:02.985Z,5.20
2022-11-25T06:40:31.413Z,5.20
2022-11-25T06:43:05.015Z,5.20
2022-11-25T06:45:34.957Z,5.20
2022-11-25T06:48:05.262Z,5.18
2022-11-25T06:50:33.191Z,5.16
2022-11-25T06:53:03.964Z,5.18
2022-11-25T06:55:37.041Z,5.20
2022-11-25T06:58:34.437Z,5.18
2022-11-25T07:01:02.388Z,5.10
2022-11-25T07:03:32.738Z,5.10
2022-11-25T07:06:02.148Z,5.10
2022-11-25T07:08:36.139Z,5.10
2022-11-25T07:11:22.343Z,5.10
2022-11-25T07:14:01.693Z,5.10
2022-11-25T07:16:35.442Z,5.12
2022-11-25T07:19:04.577Z,5.10
2022-11-25T07:21:34.942Z,5.10
2022-11-25T07:24:07.551Z,5.10
2022-11-25T07:26:39.226Z,5.10
2022-11-25T07:29:43.924Z,5.14
2022-11-25T07:32:09.963Z,5.10
2022-11-25T07:34:40.129Z,5.12
2022-11-25T07:37:09.151Z,5.18
2022-11-25T07:39:37.522Z,5.16
2022-11-25T07:42:06.564Z,5.10
2022-11-25T07:44:36.428Z,5.10
2022-11-25T07:47:08.343Z,5.10
2022-11-25T07:49:36.832Z,5.10
2022-11-25T07:52:07.872Z,5.10
2022-11-25T07:54:37.579Z,5.10
2022-11-25T07:57:06.612Z,5.10
2022-11-25T07:59:44.343Z,5.10
2022-11-25T08:02:12.396Z,5.10
2022-11-25T08:04:40.301Z,5.10
2022-11-25T08:10:01.577Z,5.10
2022-11-25T08:12:37.498Z,5.10
2022-11-25T08:15:06.988Z,5.10
2022-11-25T08:17:36.899Z,5.00
2022-11-25T08:20:07.391Z,5.00
2022-11-25T08:22:35.840Z,5.00
2022-11-25T08:25:10.137Z,5.00
2022-11-25T08:27:41.318Z,5.00
2022-11-25T08:30:13.559Z,5.02
2022-11-25T08:32:41.514Z,5.08
2022-11-25T08:35:10.900Z,5.06
2022-11-25T08:37:40.448Z,5.10
2022-11-25T08:40:10.799Z,5.10
2022-11-25T08:42:39.854Z,5.10
2022-11-25T08:45:12.954Z,5.10
2022-11-25T08:47:41.978Z,5.10
2022-11-25T08:50:13.588Z,5.10
2022-11-25T08:52:42.448Z,5.10
2022-11-25T08:55:12.916Z,5.10
2022-11-25T08:57:41.315Z,5.10
2022-11-25T09:00:10.651Z,5.10
2022-11-25T09:02:41.171Z,5.10
2022-11-25T09:05:14.722Z,5.12
2022-11-25T09:07:44.480Z,5.14
2022-11-25T09:10:17.766Z,5.16
2022-11-25T09:12:46.956Z,5.14
2022-11-25T09:15:15.376Z,5.20
2022-11-25T09:17:43.323Z,5.16
2022-11-25T09:20:11.779Z,5.18
2022-11-25T09:22:39.662Z,5.20
2022-11-25T09:25:09.342Z,5.20
2022-11-25T09:27:37.348Z,5.20
2022-11-25T09:30:08.863Z,5.20
2022-11-25T09:32:36.718Z,5.20
2022-11-25T09:35:05.083Z,5.20
2022-11-25T09:37:33.019Z,5.20
2022-11-25T09:40:03.177Z,5.20
2022-11-25T09:43:51.045Z,5.20
2022-11-25T09:46:44.173Z,5.20
2022-11-25T09:49:56.554Z,5.20
2022-11-25T09:53:02.483Z,5.20
2022-11-25T09:55:37.988Z,5.20
2022-11-25T09:58:37.484Z,5.20
2022-11-25T10:01:17.236Z,5.20
2022-11-25T10:04:20.629Z,5.20
2022-11-25T10:06:57.334Z,5.20
2022-11-25T10:09:30.705Z,5.30
2022-11-25T10:12:27.279Z,5.30
2022-11-25T10:15:36.813Z,5.30
2022-11-25T10:18:32.410Z,5.30
2022-11-25T10:21:00.973Z,5.30
2022-11-25T10:23:36.063Z,5.30
2022-11-25T10:26:20.974Z,5.30
2022-11-25T10:29:20.139Z,5.30
2022-11-25T10:31:53.979Z,5.30
2022-11-25T10:34:36.427Z,5.30
2022-11-25T10:37:14.930Z,5.30
2022-11-25T10:39:43.033Z,5.30
2022-11-25T10:42:22.164Z,5.30
2022-11-25T10:44:52.320Z,5.30
2022-11-25T10:48:05.931Z,5.32
2022-11-25T10:51:25.633Z,5.30
2022-11-25T10:54:12.579Z,5.30
2022-11-25T10:56:58.758Z,5.30
2022-11-25T10:59:41.784Z,5.30
2022-11-25T11:02:25.471Z,5.30
2022-11-25T11:04:58.238Z,5.32
2022-11-25T11:07:44.859Z,5.40
2022-11-25T11:10:26.137Z,5.40
2022-11-25T11:13:04.087Z,5.34
2022-11-25T11:15:47.368Z,5.30
2022-11-25T11:18:21.044Z,5.30
2022-11-25T11:21:01.007Z,5.30
2022-11-25T11:23:29.740Z,5.32
2022-11-25T11:26:03.142Z,5.40
2022-11-25T11:28:37.325Z,5.40
2022-11-25T11:31:29.358Z,5.40
2022-11-25T11:34:34.354Z,5.40
2022-11-25T11:37:39.783Z,5.40
2022-11-25T11:40:33.964Z,5.40
2022-11-25T11:43:04.357Z,5.40
2022-11-25T11:45:46.902Z,5.40
2022-11-25T11:48:29.630Z,5.40
2022-11-25T11:51:40.059Z,5.40
2022-11-25T11:54:36.996Z,5.40
2022-11-25T11:57:23.549Z,5.40
2022-11-25T12:00:04.689Z,5.40
2022-11-25T12:03:19.332Z,5.40
2022-11-25T12:05:54.584Z,5.40
2022-11-25T12:08:40.419Z,5.36
2022-11-25T12:11:18.488Z,5.34
2022-11-25T12:14:20.307Z,5.32
2022-11-25T12:17:08.665Z,5.32
2022-11-25T12:19:48.003Z,5.36
2022-11-25T12:22:51.266Z,5.40
2022-11-25T12:25:36.994Z,5.40
2022-11-25T12:28:46.162Z,5.40
2022-11-25T12:31:39.347Z,5.30
2022-11-25T12:34:41.321Z,5.30
2022-11-25T12:37:21.389Z,5.30
2022-11-25T12:40:03.624Z,5.30
2022-11-25T12:42:36.963Z,5.32
2022-11-25T12:45:33.609Z,5.30
2022-11-25T12:48:06.464Z,5.30
2022-11-25T12:51:13.592Z,5.30
2022-11-25T12:54:19.772Z,5.30
2022-11-25T12:57:48.834Z,5.32
2022-11-25T13:00:44.886Z,5.30
2022-11-25T13:04:17.434Z,5.30
2022-11-25T13:06:51.774Z,5.30
2022-11-25T13:10:20.210Z,5.30
2022-11-25T13:13:25.838Z,5.30
2022-11-25T13:16:00.304Z,5.24
2022-11-25T13:18:36.315Z,5.30
2022-11-25T13:21:12.094Z,5.30
2022-11-25T13:23:59.353Z,5.30
2022-11-25T13:26:38.241Z,5.30
2022-11-25T13:29:14.369Z,5.30
2022-11-25T13:32:28.020Z,5.30
2022-11-25T13:35:28.588Z,5.30
2022-11-25T13:38:01.872Z,5.30
2022-11-25T13:41:01.299Z,5.30
2022-11-25T13:43:29.716Z,5.30
2022-11-25T13:45:58.100Z,5.30
2022-11-25T13:48:37.214Z,5.30
2022-11-25T13:51:22.577Z,5.26
2022-11-25T13:54:00.473Z,5.20
2022-11-25T13:56:38.210Z,5.20
2022-11-25T13:59:19.076Z,5.20
2022-11-25T14:01:47.348Z,5.20
2022-11-25T14:04:44.138Z,5.20
2022-11-25T14:08:01.083Z,5.20
2022-11-25T14:11:16.290Z,5.14
2022-11-25T14:14:20.969Z,5.12
2022-11-25T14:17:14.600Z,5.10
2022-11-25T14:20:10.094Z,5.10
2022-11-25T14:23:11.624Z,5.08
2022-11-25T14:25:56.405Z,5.06
2022-11-25T14:29:07.004Z,5.00
2022-11-25T14:32:14.203Z,5.00
2022-11-25T14:34:50.043Z,5.00
2022-11-25T14:37:39.590Z,5.00
2022-11-25T14:40:31.569Z,5.00
2022-11-25T14:43:08.354Z,4.92
2022-11-25T14:45:37.727Z,4.90
2022-11-25T14:48:18.902Z,4.90
2022-11-25T14:50:58.792Z,4.90
2022-11-25T14:53:30.205Z,4.90
2022-11-25T14:56:01.304Z,4.90
2022-11-25T14:58:33.295Z,4.90
2022-11-25T15:01:07.628Z,4.90
2022-11-25T15:03:36.673Z,4.90
2022-11-25T15:06:09.619Z,4.90
2022-11-25T15:08:46.968Z,4.90
2022-11-25T15:11:24.493Z,4.90
2022-11-25T15:14:04.903Z,4.90
2022-11-25T15:16:39.387Z,4.90
2022-11-25T15:19:21.413Z,4.90
2022-11-25T15:22:22.905Z,4.86
2022-11-25T15:24:54.708Z,4.80
2022-11-25T15:27:28.286Z,4.80
2022-11-25T15:29:57.890Z,4.80
2022-11-25T15:35:35.757Z,4.80
2022-11-25T15:38:49.588Z,4.80
2022-11-25T15:41:34.121Z,4.70
2022-11-25T15:44:09.158Z,4.70
2022-11-25T15:46:38.264Z,4.70
2022-11-25T15:49:10.894Z,4.70
2022-11-25T15:51:48.202Z,4.70
2022-11-25T15:55:09.934Z,4.70
2022-11-25T15:57:39.056Z,4.70
2022-11-25T16:00:25.310Z,4.70
2022-11-25T16:03:02.708Z,4.70
2022-11-25T16:05:39.801Z,4.70
2022-11-25T16:08:37.615Z,4.70
2022-11-25T16:11:22.906Z,4.72
2022-11-25T16:14:00.755Z,4.80
2022-11-25T16:16:36.188Z,4.76
2022-11-25T16:19:23.207Z,4.70
2022-11-25T16:22:03.260Z,4.70
2022-11-25T16:25:14.435Z,4.70
2022-11-25T16:28:04.245Z,4.70
2022-11-25T16:30:48.560Z,4.80
2022-11-25T16:33:18.126Z,4.70
2022-11-25T16:35:46.178Z,4.70
2022-11-25T16:38:29.441Z,4.70
2022-11-25T16:41:29.294Z,4.70
2022-11-25T16:44:02.605Z,4.64
2022-11-25T16:46:36.381Z,4.64
2022-11-25T16:49:15.378Z,4.60
2022-11-25T16:51:47.839Z,4.70
2022-11-25T16:54:21.459Z,4.70
2022-11-25T16:56:55.627Z,4.70
2022-11-25T16:59:46.537Z,4.60
2022-11-25T17:02:56.560Z,4.60
2022-11-25T17:05:27.132Z,4.62
2022-11-25T17:07:55.090Z,4.64
2022-11-25T17:10:23.812Z,4.68
2022-11-25T17:12:54.521Z,4.70
2022-11-25T17:15:35.466Z,4.62
2022-11-25T17:18:17.283Z,4.60
2022-11-25T17:20:46.938Z,4.50
2022-11-25T17:23:18.087Z,4.50
2022-11-25T17:25:49.908Z,4.50
2022-11-25T17:28:22.283Z,4.40
2022-11-25T17:30:50.220Z,4.40
2022-11-25T17:33:20.802Z,4.40
2022-11-25T17:35:50.602Z,4.40
2022-11-25T17:38:21.725Z,4.40
2022-11-25T17:40:51.345Z,4.40
2022-11-25T17:43:21.301Z,4.40
2022-11-25T17:45:49.610Z,4.40
2022-11-25T17:48:18.612Z,4.40
2022-11-25T17:50:48.047Z,4.40
2022-11-25T17:53:16.260Z,4.30
2022-11-25T17:55:46.333Z,4.30
2022-11-25T17:58:16.175Z,4.40
2022-11-25T18:00:47.563Z,4.42
2022-11-25T18:03:17.411Z,4.50
2022-11-25T18:05:47.990Z,4.50
2022-11-25T18:08:17.931Z,4.50
2022-11-25T18:10:48.172Z,4.50
2022-11-25T18:13:19.606Z,4.50
2022-11-25T18:15:48.850Z,4.50
2022-11-25T18:18:27.534Z,4.50
2022-11-25T18:20:56.500Z,4.50
2022-11-25T18:23:24.456Z,4.50
2022-11-25T18:26:01.966Z,4.50
2022-11-25T18:28:32.908Z,4.50
2022-11-25T18:31:06.776Z,4.50
2022-11-25T18:33:35.635Z,4.50
2022-11-25T18:36:05.668Z,4.50
2022-11-25T18:38:40.901Z,4.50
2022-11-25T18:41:23.404Z,4.50
2022-11-25T18:43:51.556Z,4.50
2022-11-25T18:46:25.389Z,4.50
2022-11-25T18:48:57.803Z,4.50
2022-11-25T18:51:29.317Z,4.50
2022-11-25T18:53:58.097Z,4.50
2022-11-25T18:56:28.934Z,4.52
2022-11-25T18:59:00.028Z,4.50
2022-11-25T19:01:29.192Z,4.50
2022-11-25T19:03:57.396Z,4.50
2022-11-25T19:06:32.154Z,4.42
2022-11-25T19:09:04.902Z,4.50
2022-11-25T19:11:40.528Z,4.50
2022-11-25T19:14:26.560Z,4.50
2022-11-25T19:16:57.106Z,4.50
2022-11-25T19:19:28.342Z,4.40
2022-11-25T19:21:56.504Z,4.40
2022-11-25T19:24:28.904Z,4.44
2022-11-25T19:26:58.681Z,4.40
2022-11-25T19:29:41.754Z,4.50
2022-11-25T19:32:26.159Z,4.50
2022-11-25T19:35:12.757Z,4.50
2022-11-25T19:37:41.916Z,4.50
2022-11-25T19:40:22.999Z,4.50
2022-11-25T19:42:53.653Z,4.50
2022-11-25T19:45:22.966Z,4.50
2022-11-25T19:47:52.641Z,4.50
2022-11-25T19:50:29.901Z,4.56
2022-11-25T19:52:59.919Z,4.60
2022-11-25T19:55:30.750Z,4.60
2022-11-25T19:57:59.896Z,4.60
2022-11-25T20:00:31.509Z,4.50
2022-11-25T20:03:00.303Z,4.58
2022-11-25T20:05:31.238Z,4.50
2022-11-25T20:08:02.262Z,4.60
2022-11-25T20:10:32.535Z,4.60
2022-11-25T20:13:01.090Z,4.60
2022-11-25T20:15:29.273Z,4.60
2022-11-25T20:18:01.258Z,4.58
2022-11-25T20:20:36.623Z,4.50
2022-11-25T20:23:44.562Z,4.50
2022-11-25T20:26:30.937Z,4.50
2022-11-25T20:28:58.820Z,4.60
2022-11-25T20:31:30.784Z,4.60
2022-11-25T20:34:03.008Z,4.60
2022-11-25T20:36:34.237Z,4.60
2022-11-25T20:39:04.126Z,4.60
2022-11-25T20:41:33.339Z,4.60
2022-11-25T20:44:04.362Z,4.60
2022-11-25T20:46:32.602Z,4.60
2022-11-25T20:49:21.755Z,4.60
2022-11-25T20:51:50.250Z,4.60
2022-11-25T20:54:19.069Z,4.60
2022-11-25T20:56:47.074Z,4.60
2022-11-25T20:59:25.098Z,4.60
2022-11-25T21:01:54.969Z,4.60
2022-11-25T21:04:24.267Z,4.60
2022-11-25T21:06:52.520Z,4.60
2022-11-25T21:09:26.657Z,4.60
2022-11-25T21:12:00.171Z,4.60
2022-11-25T21:14:30.484Z,4.60
2022-11-25T21:16:58.247Z,4.60
2022-11-25T21:19:29.960Z,4.60
2022-11-25T21:21:58.340Z,4.60
2022-11-25T21:24:40.675Z,4.60
2022-11-25T21:27:16.246Z,4.60
2022-11-25T21:29:48.219Z,4.60
2022-11-25T21:32:28.513Z,4.60
2022-11-25T21:34:58.487Z,4.60
2022-11-25T21:37:37.738Z,4.60
2022-11-25T21:40:24.690Z,4.60
2022-11-25T21:42:54.305Z,4.60
2022-11-25T21:45:24.855Z,4.60
2022-11-25T21:47:52.678Z,4.60
2022-11-25T21:50:25.165Z,4.60
2022-11-25T21:52:53.395Z,4.60
2022-11-25T21:55:22.099Z,4.60
2022-11-25T21:57:52.619Z,4.60
2022-11-25T22:00:27.812Z,4.60
2022-11-25T22:03:00.035Z,4.60
2022-11-25T22:05:33.320Z,4.60
2022-11-25T22:08:03.918Z,4.60
2022-11-25T22:10:48.052Z,4.60
2022-11-25T22:13:39.184Z,4.60
2022-11-25T22:16:08.990Z,4.60
2022-11-25T22:18:40.546Z,4.60
2022-11-25T22:21:14.702Z,4.60
2022-11-25T22:23:43.738Z,4.60
2022-11-25T22:26:30.836Z,4.60
2022-11-25T22:29:00.486Z,4.62
2022-11-25T22:31:30.126Z,4.70
2022-11-25T22:34:00.991Z,4.70
2022-11-25T22:36:41.942Z,4.70
2022-11-25T22:39:21.852Z,4.70
2022-11-25T22:42:06.819Z,4.78
2022-11-25T22:44:41.965Z,4.70
2022-11-25T22:47:52.133Z,4.70
2022-11-25T22:50:33.920Z,4.80
2022-11-25T22:53:02.854Z,4.80
2022-11-25T22:55:34.915Z,4.82
2022-11-25T22:58:05.282Z,4.80
2022-11-25T23:00:40.994Z,4.80
2022-11-25T23:03:25.146Z,4.70
2022-11-25T23:05:57.824Z,4.70
2022-11-25T23:08:34.333Z,4.70
2022-11-25T23:11:03.773Z,4.70
2022-11-25T23:13:39.602Z,4.76
2022-11-25T23:16:11.478Z,4.72
2022-11-25T23:18:46.790Z,4.70
2022-11-25T23:21:23.651Z,4.70
2022-11-25T23:23:53.978Z,4.70
2022-11-25T23:26:28.782Z,4.64
2022-11-25T23:29:02.640Z,4.66
2022-11-25T23:31:32.179Z,4.68
2022-11-25T23:34:08.080Z,4.70
2022-11-25T23:36:49.801Z,4.70
2022-11-25T23:39:28.284Z,4.70
2022-11-25T23:41:56.526Z,4.70
2022-11-25T23:44:32.254Z,4.70
2022-11-25T23:47:30.832Z,4.70
2022-11-25T23:50:03.032Z,4.70
2022-11-25T23:52:31.711Z,4.70
2022-11-25T23:55:00.288Z,4.70
2022-11-25T23:57:33.235Z,4.76
